createdAt,value
2022-12-20T00:02:19.868Z,2.72
2022-12-20T00:04:46.377Z,2.70
2022-12-20T00:07:12.748Z,3.28
2022-12-20T00:09:39.093Z,2.73
2022-12-20T00:12:05.579Z,3.33
2022-12-20T00:14:31.976Z,3.08
2022-12-20T00:16:58.342Z,3.05
2022-12-20T00:19:24.805Z,2.80
2022-12-20T00:21:51.150Z,2.93
2022-12-20T00:24:23.915Z,3.10
2022-12-20T00:26:52.385Z,2.72
2022-12-20T00:29:18.746Z,3.55
2022-12-20T00:31:45.186Z,3.25
2022-12-20T00:34:11.577Z,3.90
2022-12-20T00:36:40.027Z,3.40
2022-12-20T00:39:06.511Z,3.10
2022-12-20T00:41:33.712Z,2.80
2022-12-20T00:44:00.707Z,2.97
2022-12-20T00:46:27.261Z,3.30
2022-12-20T00:48:54.830Z,3.35
2022-12-20T00:51:25.326Z,2.85
2022-12-20T00:53:52.177Z,3.25
2022-12-20T00:56:19.124Z,3.22
2022-12-20T00:58:45.519Z,3.57
2022-12-20T01:01:17.644Z,3.15
2022-12-20T01:03:44.186Z,3.33
2022-12-20T01:06:10.755Z,3.17
2022-12-20T01:08:38.673Z,3.00
2022-12-20T01:11:07.649Z,4.40
2022-12-20T01:13:35.331Z,4.68
2022-12-20T01:16:09.456Z,6.15
2022-12-20T01:18:36.134Z,5.22
2022-12-20T01:21:06.714Z,6.10
2022-12-20T01:23:33.128Z,4.83
2022-12-20T01:26:00.385Z,5.43
2022-12-20T01:28:27.282Z,5.28
2022-12-20T01:30:53.773Z,5.93
2022-12-20T01:33:20.236Z,5.15
2022-12-20T01:36:00.199Z,5.37
2022-12-20T01:38:26.712Z,5.75
2022-12-20T01:40:53.396Z,5.82
2022-12-20T01:43:20.148Z,5.60
2022-12-20T01:45:47.021Z,4.80
2022-12-20T01:48:14.943Z,5.40
2022-12-20T01:50:41.503Z,4.57
2022-12-20T01:53:08.039Z,4.72
2022-12-20T01:55:34.572Z,4.75
2022-12-20T01:58:00.941Z,4.20
2022-12-20T02:00:27.711Z,3.00
2022-12-20T02:02:54.572Z,4.38
2022-12-20T02:05:22.676Z,4.72
2022-12-20T02:07:50.303Z,4.40
2022-12-20T02:10:16.975Z,4.10
2022-12-20T02:12:45.084Z,5.33
2022-12-20T02:15:30.216Z,4.43
2022-12-20T02:17:59.316Z,3.65
2022-12-20T02:20:44.347Z,3.58
2022-12-20T02:23:16.882Z,3.97
2022-12-20T02:26:01.167Z,3.90
2022-12-20T02:28:39.608Z,4.40
2022-12-20T02:31:10.609Z,3.67
2022-12-20T02:33:37.442Z,3.47
2022-12-20T02:36:04.357Z,3.38
2022-12-20T02:38:30.657Z,3.77
2022-12-20T02:41:02.364Z,3.10
2022-12-20T02:43:48.415Z,3.83
2022-12-20T02:46:15.758Z,3.80
2022-12-20T02:48:42.452Z,4.78
2022-12-20T02:51:09.583Z,4.17
2022-12-20T02:53:36.954Z,3.95
2022-12-20T02:56:09.695Z,2.80
2022-12-20T02:58:54.954Z,3.72
2022-12-20T03:01:28.403Z,3.17
2022-12-20T03:03:57.106Z,3.13
2022-12-20T03:06:23.656Z,3.08
2022-12-20T03:08:50.102Z,3.40
2022-12-20T03:11:16.558Z,3.67
2022-12-20T03:13:42.969Z,3.33
2022-12-20T03:16:10.848Z,3.37
2022-12-20T03:18:37.689Z,3.47
2022-12-20T03:21:04.186Z,3.72
2022-12-20T03:23:30.598Z,3.60
2022-12-20T03:25:56.968Z,3.92
2022-12-20T03:28:23.382Z,3.53
2022-12-20T03:30:50.170Z,3.45
2022-12-20T03:33:16.678Z,4.10
2022-12-20T03:35:43.115Z,3.30
2022-12-20T03:38:09.507Z,4.35
2022-12-20T03:40:35.866Z,4.00
2022-12-20T03:43:02.286Z,4.38
2022-12-20T03:45:28.617Z,4.07
2022-12-20T03:47:55.160Z,3.20
2022-12-20T03:50:21.563Z,4.00
2022-12-20T03:52:49.112Z,3.10
2022-12-20T03:55:15.500Z,3.70
2022-12-20T03:57:42.350Z,3.95
2022-12-20T04:00:09.189Z,3.05
2022-12-20T04:02:35.709Z,3.95
2022-12-20T04:05:02.151Z,3.77
2022-12-20T04:07:28.551Z,3.35
2022-12-20T04:09:54.914Z,2.80
2022-12-20T04:12:21.380Z,3.28
2022-12-20T04:14:47.755Z,3.53
2022-12-20T04:17:14.127Z,3.27
2022-12-20T04:19:40.453Z,3.40
2022-12-20T04:22:06.818Z,3.13
2022-12-20T04:24:33.179Z,3.08
2022-12-20T04:26:59.601Z,3.58
2022-12-20T04:29:25.932Z,3.73
2022-12-20T04:31:52.438Z,2.90
2022-12-20T04:34:18.889Z,3.30
2022-12-20T04:36:45.339Z,3.42
2022-12-20T04:39:11.710Z,3.35
2022-12-20T04:41:38.268Z,3.13
2022-12-20T04:44:04.729Z,4.25
2022-12-20T04:46:31.176Z,3.63
2022-12-20T04:48:59.345Z,4.55
2022-12-20T04:51:27.005Z,4.57
2022-12-20T04:53:53.509Z,5.30
2022-12-20T04:56:21.505Z,5.72
2022-12-20T04:58:49.418Z,7.00
2022-12-20T05:01:16.157Z,5.47
2022-12-20T05:03:42.657Z,4.55
2022-12-20T05:06:10.136Z,4.73
2022-12-20T05:08:37.027Z,3.72
2022-12-20T05:11:04.162Z,4.05
2022-12-20T05:13:30.595Z,3.88
2022-12-20T05:15:57.431Z,4.13
2022-12-20T05:18:23.940Z,4.27
2022-12-20T05:21:10.295Z,3.80
2022-12-20T05:23:55.724Z,5.25
2022-12-20T05:26:23.359Z,3.15
2022-12-20T05:28:52.242Z,5.30
2022-12-20T05:31:18.892Z,5.07
2022-12-20T05:33:45.890Z,6.65
2022-12-20T05:36:12.522Z,4.45
2022-12-20T05:38:39.038Z,5.30
2022-12-20T05:41:06.697Z,4.90
2022-12-20T05:43:33.128Z,4.47
2022-12-20T05:46:00.319Z,4.80
2022-12-20T05:48:26.735Z,4.72
2022-12-20T05:50:53.060Z,5.18
2022-12-20T05:53:19.484Z,4.20
2022-12-20T05:55:48.080Z,4.80
2022-12-20T05:58:14.805Z,2.85
2022-12-20T06:00:41.916Z,3.78
2022-12-20T06:03:09.585Z,4.18
2022-12-20T06:05:36.790Z,3.53
2022-12-20T06:08:03.916Z,3.57
2022-12-20T06:10:31.897Z,2.50
2022-12-20T06:12:58.315Z,2.80
2022-12-20T06:15:24.701Z,2.83
2022-12-20T06:17:51.071Z,3.10
2022-12-20T06:20:17.933Z,3.03
2022-12-20T06:22:44.288Z,2.70
2022-12-20T06:25:12.417Z,2.88
2022-12-20T06:27:38.791Z,2.05
2022-12-20T06:30:05.649Z,2.58
2022-12-20T06:32:32.037Z,2.63
2022-12-20T06:34:58.416Z,2.58
2022-12-20T06:37:24.913Z,2.92
2022-12-20T06:39:51.427Z,2.70
2022-12-20T06:42:17.799Z,2.35
2022-12-20T06:44:44.690Z,2.50
2022-12-20T06:47:11.138Z,3.00
2022-12-20T06:49:37.548Z,2.38
2022-12-20T06:52:04.077Z,3.10
2022-12-20T06:54:30.458Z,2.88
2022-12-20T06:56:56.987Z,2.50
2022-12-20T06:59:23.378Z,2.30
2022-12-20T07:01:52.585Z,2.72
2022-12-20T07:04:19.697Z,2.00
2022-12-20T07:06:46.055Z,3.05
2022-12-20T07:09:12.432Z,2.90
2022-12-20T07:11:38.836Z,2.10
2022-12-20T07:14:05.309Z,2.30
2022-12-20T07:16:32.453Z,2.15
2022-12-20T07:18:58.923Z,2.95
2022-12-20T07:21:25.375Z,2.60
2022-12-20T07:23:52.696Z,2.67
2022-12-20T07:26:19.093Z,2.80
2022-12-20T07:28:45.932Z,2.83
2022-12-20T07:31:12.366Z,2.42
2022-12-20T07:33:41.313Z,2.17
2022-12-20T07:36:09.913Z,2.30
2022-12-20T07:38:36.421Z,2.67
2022-12-20T07:41:10.140Z,2.80
2022-12-20T07:43:36.683Z,3.10
2022-12-20T07:46:04.465Z,2.17
2022-12-20T07:48:31.106Z,2.40
2022-12-20T07:51:02.727Z,2.50
2022-12-20T07:53:30.237Z,2.70
2022-12-20T07:55:57.813Z,2.95
2022-12-20T07:58:24.376Z,2.53
2022-12-20T08:00:51.048Z,2.67
2022-12-20T08:03:19.902Z,3.25
2022-12-20T08:05:49.939Z,2.75
2022-12-20T08:08:16.680Z,2.60
2022-12-20T08:10:43.569Z,2.87
2022-12-20T08:13:10.138Z,2.63
2022-12-20T08:15:36.735Z,2.72
2022-12-20T08:18:03.301Z,3.30
2022-12-20T08:20:29.670Z,2.47
2022-12-20T08:22:55.991Z,3.10
2022-12-20T08:25:22.431Z,2.95
2022-12-20T08:27:49.587Z,3.03
2022-12-20T08:30:16.091Z,3.17
2022-12-20T08:32:42.503Z,1.98
2022-12-20T08:35:09.074Z,2.50
2022-12-20T08:37:35.530Z,3.10
2022-12-20T08:40:01.967Z,3.00
2022-12-20T08:42:28.675Z,2.83
2022-12-20T08:44:55.639Z,2.90
2022-12-20T08:47:22.032Z,2.60
2022-12-20T08:49:48.420Z,3.08
2022-12-20T08:52:14.857Z,2.50
2022-12-20T08:54:41.288Z,3.20
2022-12-20T08:57:08.191Z,2.40
2022-12-20T08:59:34.532Z,2.77
2022-12-20T09:02:01.081Z,2.25
2022-12-20T09:04:27.496Z,2.97
2022-12-20T09:06:53.855Z,2.22
2022-12-20T09:09:20.417Z,2.75
2022-12-20T09:11:46.852Z,2.73
2022-12-20T09:14:13.281Z,2.80
2022-12-20T09:16:39.632Z,3.08
2022-12-20T09:19:06.746Z,2.63
2022-12-20T09:21:33.910Z,2.33
2022-12-20T09:24:00.621Z,2.70
2022-12-20T09:26:27.097Z,2.28
2022-12-20T09:28:54.007Z,2.70
2022-12-20T09:31:21.867Z,2.55
2022-12-20T09:33:48.506Z,2.08
2022-12-20T09:36:18.506Z,2.77
2022-12-20T09:38:45.652Z,2.90
2022-12-20T09:41:31.043Z,2.42
2022-12-20T09:43:58.645Z,2.53
2022-12-20T09:46:25.442Z,2.10
2022-12-20T09:48:52.297Z,2.50
2022-12-20T09:51:18.669Z,2.33
2022-12-20T09:54:03.821Z,2.65
2022-12-20T09:56:32.631Z,2.70
2022-12-20T09:59:03.083Z,2.88
2022-12-20T10:01:37.993Z,2.90
2022-12-20T10:04:24.563Z,2.45
2022-12-20T10:06:51.107Z,2.80
2022-12-20T10:09:18.462Z,2.83
2022-12-20T10:11:51.160Z,2.00
2022-12-20T10:14:27.237Z,3.10
2022-12-20T10:17:08.382Z,2.45
2022-12-20T10:19:40.533Z,2.90
2022-12-20T10:22:06.891Z,3.22
2022-12-20T10:24:34.412Z,3.20
2022-12-20T10:27:18.893Z,2.97
2022-12-20T10:29:46.498Z,2.97
2022-12-20T10:32:14.265Z,3.25
2022-12-20T10:35:00.124Z,3.00
2022-12-20T10:37:26.701Z,2.53
2022-12-20T10:39:53.154Z,2.53
2022-12-20T10:42:22.198Z,3.15
2022-12-20T10:44:48.700Z,2.42
2022-12-20T10:47:44.734Z,2.95
2022-12-20T10:50:17.079Z,3.22
2022-12-20T10:52:43.951Z,3.57
2022-12-20T10:55:29.113Z,4.03
2022-12-20T10:57:55.518Z,2.40
2022-12-20T11:00:29.698Z,2.92
2022-12-20T11:03:22.490Z,2.33
2022-12-20T11:06:12.253Z,2.83
2022-12-20T11:08:47.485Z,3.38
2022-12-20T11:11:18.722Z,2.83
2022-12-20T11:13:46.511Z,3.70
2022-12-20T11:16:23.821Z,2.90
2022-12-20T11:19:02.769Z,3.63
2022-12-20T11:21:42.916Z,2.55
2022-12-20T11:24:14.747Z,3.78
2022-12-20T11:26:48.390Z,3.63
2022-12-20T11:29:26.713Z,3.13
2022-12-20T11:31:53.171Z,4.30
2022-12-20T11:34:23.105Z,2.63
2022-12-20T11:37:01.172Z,3.00
2022-12-20T11:39:32.061Z,4.53
2022-12-20T11:42:01.499Z,3.20
2022-12-20T11:44:32.750Z,3.07
2022-12-20T11:47:09.165Z,3.70
2022-12-20T11:49:44.600Z,2.95
2022-12-20T11:52:37.438Z,3.42
2022-12-20T11:55:07.915Z,3.10
2022-12-20T11:58:09.467Z,3.17
2022-12-20T12:00:30.542Z,3.10
2022-12-20T12:03:04.234Z,2.78
2022-12-20T12:05:48.771Z,3.35
2022-12-20T12:08:19.048Z,3.58
2022-12-20T12:10:52.948Z,4.10
2022-12-20T12:13:25.071Z,3.33
2022-12-20T12:15:56.788Z,3.63
2022-12-20T12:18:34.020Z,3.50
2022-12-20T12:21:09.870Z,3.28
2022-12-20T12:23:55.610Z,3.10
2022-12-20T12:26:29.111Z,3.72
2022-12-20T12:29:10.140Z,4.03
2022-12-20T12:31:39.530Z,3.40
2022-12-20T12:34:05.992Z,3.22
2022-12-20T12:36:38.135Z,2.80
2022-12-20T12:39:24.122Z,4.43
2022-12-20T12:41:56.640Z,3.95
2022-12-20T12:44:25.806Z,3.28
2022-12-20T12:46:56.074Z,3.70
2022-12-20T12:49:24.003Z,4.10
2022-12-20T12:51:52.040Z,3.50
2022-12-20T12:54:21.835Z,3.72
2022-12-20T12:56:49.261Z,3.83
2022-12-20T12:59:20.983Z,3.58
2022-12-20T13:01:54.831Z,3.33
2022-12-20T13:04:21.300Z,3.50
2022-12-20T13:06:47.867Z,4.55
2022-12-20T13:09:22.554Z,4.43
2022-12-20T13:11:55.281Z,3.38
2022-12-20T13:14:27.491Z,3.97
2022-12-20T13:17:12.787Z,4.60
2022-12-20T13:19:48.993Z,4.50
2022-12-20T13:22:23.864Z,4.15
2022-12-20T13:24:56.412Z,4.60
2022-12-20T13:27:41.759Z,4.77
2022-12-20T13:30:10.128Z,3.88
2022-12-20T13:32:48.611Z,4.30
2022-12-20T13:35:24.167Z,3.85
2022-12-20T13:37:55.155Z,4.53
2022-12-20T13:40:26.065Z,4.20
2022-12-20T13:42:54.510Z,3.78
2022-12-20T13:45:20.992Z,4.13
2022-12-20T13:47:49.941Z,3.83
2022-12-20T13:50:27.342Z,3.95
2022-12-20T13:52:54.755Z,4.70
2022-12-20T13:55:42.864Z,3.22
2022-12-20T13:58:27.904Z,3.47
2022-12-20T14:01:00.857Z,3.20
2022-12-20T14:03:28.697Z,3.30
2022-12-20T14:06:02.805Z,4.10
2022-12-20T14:08:33.189Z,3.95
2022-12-20T14:11:08.451Z,3.97
2022-12-20T14:13:34.863Z,3.50
2022-12-20T14:16:08.281Z,4.50
2022-12-20T14:18:34.683Z,3.50
2022-12-20T14:21:05.013Z,3.97
2022-12-20T14:23:36.045Z,3.67
2022-12-20T14:26:02.773Z,3.35
2022-12-20T14:28:45.723Z,3.58
2022-12-20T14:31:23.635Z,3.83
2022-12-20T14:33:51.339Z,3.45
2022-12-20T14:36:19.842Z,3.03
2022-12-20T14:38:52.922Z,4.03
2022-12-20T14:41:28.220Z,4.32
2022-12-20T14:43:59.560Z,3.77
2022-12-20T14:46:26.123Z,4.90
2022-12-20T14:49:14.769Z,3.97
2022-12-20T14:51:41.174Z,4.82
2022-12-20T14:54:20.673Z,4.10
2022-12-20T14:56:58.166Z,4.20
2022-12-20T14:59:28.549Z,4.55
2022-12-20T15:01:55.451Z,4.40
2022-12-20T15:04:24.804Z,4.45
2022-12-20T15:06:52.681Z,4.70
2022-12-20T15:09:19.354Z,4.30
2022-12-20T15:11:46.353Z,4.82
2022-12-20T15:14:24.794Z,4.72
2022-12-20T15:16:52.097Z,4.85
2022-12-20T15:19:18.494Z,4.82
2022-12-20T15:21:45.752Z,5.10
2022-12-20T15:24:17.004Z,8.00
2022-12-20T15:26:43.448Z,5.85
2022-12-20T15:29:22.505Z,4.57
2022-12-20T15:31:49.666Z,6.00
2022-12-20T15:34:21.972Z,8.90
2022-12-20T15:36:48.440Z,7.00
2022-12-20T15:39:15.586Z,8.00
2022-12-20T15:41:44.760Z,6.88
2022-12-20T15:44:14.387Z,6.63
2022-12-20T15:46:40.890Z,6.53
2022-12-20T15:49:10.182Z,5.72
2022-12-20T15:51:38.144Z,6.28
2022-12-20T15:54:05.562Z,6.15
2022-12-20T15:56:31.962Z,6.30
2022-12-20T15:58:58.440Z,8.60
2022-12-20T16:01:33.316Z,7.35
2022-12-20T16:04:05.470Z,6.20
2022-12-20T16:06:32.408Z,6.18
2022-12-20T16:08:58.940Z,5.88
2022-12-20T16:11:27.653Z,5.80
2022-12-20T16:13:54.978Z,5.22
2022-12-20T16:16:22.827Z,5.20
2022-12-20T16:18:49.555Z,5.80
2022-12-20T16:21:26.249Z,4.97
2022-12-20T16:23:54.183Z,5.30
2022-12-20T16:26:22.042Z,10.00
2022-12-20T16:28:48.981Z,7.07
2022-12-20T16:31:18.383Z,8.02
2022-12-20T16:33:44.807Z,7.70
2022-12-20T16:36:11.616Z,9.13
2022-12-20T16:38:38.037Z,8.95
2022-12-20T16:41:30.532Z,11.38
2022-12-20T16:43:58.127Z,9.00
2022-12-20T16:46:28.402Z,9.18
2022-12-20T16:48:56.893Z,9.10
2022-12-20T16:51:27.555Z,10.50
2022-12-20T16:56:44.119Z,15.98
2022-12-20T16:59:19.773Z,33.15
2022-12-20T17:01:47.920Z,15.03
2022-12-20T17:04:15.691Z,14.27
2022-12-20T17:06:42.524Z,11.30
2022-12-20T17:11:53.319Z,11.02
2022-12-20T17:14:20.047Z,11.17
2022-12-20T17:16:46.690Z,19.08
2022-12-20T17:19:13.971Z,18.45
2022-12-20T17:24:29.106Z,16.63
2022-12-20T17:26:55.526Z,16.73
2022-12-20T17:29:21.889Z,22.67
2022-12-20T17:31:48.528Z,21.35
2022-12-20T17:34:24.004Z,16.80
2022-12-20T17:36:51.706Z,14.63
2022-12-20T17:39:18.369Z,24.13
2022-12-20T17:41:45.017Z,38.00
2022-12-20T17:44:31.622Z,32.72
2022-12-20T17:46:58.053Z,31.27
2022-12-20T17:49:24.586Z,27.48
2022-12-20T17:51:56.029Z,21.03
2022-12-20T17:54:24.116Z,22.63
2022-12-20T17:56:50.938Z,16.00
2022-12-20T17:59:17.578Z,17.10
2022-12-20T18:01:44.409Z,16.80
2022-12-20T18:04:12.193Z,14.13
2022-12-20T18:06:39.598Z,13.77
2022-12-20T18:09:10.106Z,14.70
2022-12-20T18:11:36.573Z,15.43
2022-12-20T18:14:03.606Z,13.10
2022-12-20T18:16:31.663Z,14.43
2022-12-20T18:18:58.598Z,15.45
2022-12-20T18:21:26.383Z,15.50
2022-12-20T18:23:53.263Z,13.75
2022-12-20T18:26:22.734Z,14.45
2022-12-20T18:28:50.124Z,15.90
2022-12-20T18:31:18.240Z,14.75
2022-12-20T18:33:45.300Z,14.50
2022-12-20T18:36:12.906Z,14.88
2022-12-20T18:38:40.174Z,14.60
2022-12-20T18:41:07.397Z,19.60
2022-12-20T18:43:34.882Z,19.02
2022-12-20T18:46:07.138Z,19.45
2022-12-20T18:48:34.028Z,21.30
2022-12-20T18:51:07.051Z,15.85
2022-12-20T18:53:34.388Z,19.73
2022-12-20T18:56:01.973Z,26.38
2022-12-20T18:58:28.438Z,19.70
2022-12-20T19:00:58.784Z,18.25
2022-12-20T19:03:26.040Z,41.90
2022-12-20T19:05:53.324Z,41.03
2022-12-20T19:08:19.725Z,31.58
2022-12-20T19:10:46.205Z,26.50
2022-12-20T19:13:12.564Z,18.33
2022-12-20T19:15:38.927Z,30.08
2022-12-20T19:18:06.789Z,32.07
2022-12-20T19:20:36.810Z,25.77
2022-12-20T19:23:03.634Z,22.55
2022-12-20T19:25:33.337Z,18.55
2022-12-20T19:27:59.707Z,16.75
2022-12-20T19:30:26.239Z,17.43
2022-12-20T19:32:52.685Z,16.65
2022-12-20T19:35:53.572Z,16.50
2022-12-20T19:38:07.024Z,18.48
2022-12-20T19:40:33.401Z,19.05
2022-12-20T19:42:59.780Z,17.20
2022-12-20T19:45:28.423Z,17.83
2022-12-20T19:47:54.855Z,16.80
2022-12-20T19:50:21.305Z,33.45
2022-12-20T19:52:47.979Z,39.65
2022-12-20T19:55:14.404Z,29.10
2022-12-20T19:57:40.802Z,25.20
2022-12-20T20:00:08.815Z,22.70
2022-12-20T20:02:35.378Z,19.25
2022-12-20T20:05:01.954Z,39.47
2022-12-20T20:07:28.556Z,34.20
2022-12-20T20:09:54.886Z,32.55
2022-12-20T20:12:21.293Z,31.35
2022-12-20T20:14:48.139Z,33.25
2022-12-20T20:17:14.510Z,30.27
2022-12-20T20:19:42.674Z,34.47
2022-12-20T20:22:10.740Z,35.53
2022-12-20T20:24:37.318Z,28.23
2022-12-20T20:27:03.830Z,22.17
2022-12-20T20:29:30.358Z,19.13
2022-12-20T20:31:56.829Z,20.10
2022-12-20T20:34:23.417Z,18.60
2022-12-20T20:36:49.797Z,17.55
2022-12-20T20:39:16.246Z,17.30
2022-12-20T20:41:42.934Z,17.88
2022-12-20T20:44:10.838Z,19.00
2022-12-20T20:46:37.313Z,21.65
2022-12-20T20:49:03.856Z,22.48
2022-12-20T20:51:30.259Z,45.35
2022-12-20T20:53:56.770Z,21.42
2022-12-20T20:56:23.366Z,17.20
2022-12-20T20:58:50.068Z,16.48
2022-12-20T21:01:16.581Z,18.90
2022-12-20T21:03:43.098Z,18.73
2022-12-20T21:08:56.190Z,16.40
2022-12-20T21:11:22.760Z,15.85
2022-12-20T21:13:49.248Z,15.70
2022-12-20T21:16:20.710Z,16.92
2022-12-20T21:18:54.432Z,16.17
2022-12-20T21:21:21.202Z,16.07
2022-12-20T21:23:48.104Z,16.17
2022-12-20T21:26:23.736Z,17.19
2022-12-20T21:28:50.098Z,16.13
2022-12-20T21:31:17.540Z,15.63
2022-12-20T21:33:45.929Z,16.08
2022-12-20T21:36:14.368Z,16.73
2022-12-20T21:38:41.038Z,15.93
2022-12-20T21:41:08.999Z,16.60
2022-12-20T21:43:35.423Z,17.20
2022-12-20T21:46:01.908Z,17.63
2022-12-20T21:48:29.639Z,17.42
2022-12-20T21:51:03.498Z,15.67
2022-12-20T21:53:30.456Z,16.33
2022-12-20T21:55:57.774Z,15.20
2022-12-20T21:58:24.763Z,15.45
2022-12-20T22:00:55.420Z,15.52
2022-12-20T22:03:22.885Z,14.60
2022-12-20T22:05:50.767Z,17.08
2022-12-20T22:08:17.709Z,15.35
2022-12-20T22:10:44.137Z,15.02
2022-12-20T22:13:11.339Z,14.68
2022-12-20T22:15:38.217Z,14.77
2022-12-20T22:18:05.452Z,15.10
2022-12-20T22:20:32.024Z,17.05
2022-12-20T22:22:58.355Z,16.02
2022-12-20T22:25:25.212Z,15.10
2022-12-20T22:27:51.623Z,14.20
2022-12-20T22:30:18.446Z,14.52
2022-12-20T22:32:44.907Z,15.63
2022-12-20T22:35:11.418Z,14.40
2022-12-20T22:37:37.803Z,15.70
2022-12-20T22:40:05.134Z,15.57
2022-12-20T22:42:31.499Z,15.73
2022-12-20T22:44:57.955Z,15.80
2022-12-20T22:47:24.262Z,18.00
2022-12-20T22:49:50.561Z,17.38
2022-12-20T22:52:16.899Z,16.53
2022-12-20T22:54:43.202Z,17.77
2022-12-20T22:57:12.005Z,16.02
2022-12-20T22:59:38.672Z,16.15
2022-12-20T23:02:05.242Z,16.67
2022-12-20T23:04:31.693Z,16.37
2022-12-20T23:06:58.078Z,17.60
2022-12-20T23:09:24.932Z,17.33
2022-12-20T23:12:09.892Z,17.90
2022-12-20T23:14:58.728Z,16.08
2022-12-20T23:17:28.151Z,16.67
2022-12-20T23:20:13.027Z,17.20
2022-12-20T23:22:40.183Z,18.15
2022-12-20T23:25:11.768Z,18.02
2022-12-20T23:27:38.915Z,19.17
2022-12-20T23:30:06.876Z,18.20
2022-12-20T23:32:33.250Z,18.15
2022-12-20T23:34:59.908Z,16.65
2022-12-20T23:37:27.854Z,17.17
2022-12-20T23:39:54.289Z,17.25
2022-12-20T23:42:20.704Z,16.63
2022-12-20T23:44:47.049Z,17.75
2022-12-20T23:47:18.668Z,17.40
2022-12-20T23:49:45.554Z,17.23
2022-12-20T23:52:11.882Z,18.35
2022-12-20T23:54:38.226Z,17.33
2022-12-20T23:57:04.534Z,17.10
2022-12-20T23:59:30.992Z,17.42
